Time;durP1;ratioP1;P1;durP2;ratioP2;P2;SDS_P1;SDS_P2;PMS_P1;PMS_P2;Temp;Humidity;BMP_temperature;BMP_pressure;BME280_temperature;BME280_humidity;BME280_pressure;Samples;Min_cycle;Max_cycle;Signal;HPM_P1;HPM_P2
2023/07/04 00:01:12;;;;;;;;;;;23.40;68.30;;;;;;5008805;28;92860;-43
2023/07/04 00:03:39;;;;;;;;;;;23.40;68.40;;;;;;5008551;28;93266;-45
2023/07/04 00:06:05;;;;;;;;;;;23.40;68.30;;;;;;5006717;28;93160;-43
2023/07/04 00:08:33;;;;;;;;;;;23.40;68.40;;;;;;5008441;28;93623;-43
2023/07/04 00:10:59;;;;;;;;;;;23.30;68.30;;;;;;5008320;28;92888;-44
2023/07/04 00:13:26;;;;;;;;;;;23.30;68.30;;;;;;5011488;28;92176;-44
2023/07/04 00:15:52;;;;;;;;;;;23.30;68.30;;;;;;5008008;28;94233;-45
2023/07/04 00:18:21;;;;;;;;;;;23.30;68.40;;;;;;5007848;28;92634;-44
2023/07/04 00:20:47;;;;;;;;;;;23.30;68.30;;;;;;5005524;28;92382;-45
2023/07/04 00:23:13;;;;;;;;;;;23.30;68.40;;;;;;5008181;28;94381;-44
2023/07/04 00:25:38;;;;;;;;;;;23.30;68.40;;;;;;5007875;28;92257;-44
2023/07/04 00:28:05;;;;;;;;;;;23.30;68.40;;;;;;5009320;28;92444;-45
2023/07/04 00:30:31;;;;;;;;;;;23.30;68.30;;;;;;5006659;28;94575;-43
2023/07/04 00:32:57;;;;;;;;;;;23.30;68.40;;;;;;5010232;28;91697;-43
2023/07/04 00:35:22;;;;;;;;;;;23.30;68.30;;;;;;5008601;28;92245;-43
2023/07/04 00:37:47;;;;;;;;;;;23.20;68.40;;;;;;5003479;28;92032;-44
2023/07/04 00:40:13;;;;;;;;;;;23.20;68.40;;;;;;5008543;28;93330;-45
2023/07/04 00:42:41;;;;;;;;;;;23.20;68.40;;;;;;5005996;28;92237;-43
2023/07/04 00:45:18;;;;;;;;;;;23.20;68.40;;;;;;5004142;28;92748;-44
2023/07/04 00:47:53;;;;;;;;;;;23.20;68.30;;;;;;5010838;28;95603;-45
2023/07/04 00:50:19;;;;;;;;;;;23.20;68.30;;;;;;5011652;28;94184;-43
2023/07/04 00:52:45;;;;;;;;;;;23.20;68.30;;;;;;5009153;28;92250;-44
2023/07/04 00:55:11;;;;;;;;;;;23.20;68.40;;;;;;5011978;28;92680;-43
2023/07/04 00:57:38;;;;;;;;;;;23.10;68.30;;;;;;5014013;28;93650;-44
2023/07/04 01:00:12;;;;;;;;;;;23.10;68.20;;;;;;5011726;28;92027;-43
2023/07/04 01:02:38;;;;;;;;;;;23.10;68.20;;;;;;5009673;28;94669;-45
2023/07/04 01:05:04;;;;;;;;;;;23.20;68.20;;;;;;5012108;28;94117;-43
2023/07/04 01:07:38;;;;;;;;;;;23.10;68.30;;;;;;5010043;28;93302;-44
2023/07/04 01:10:18;;;;;;;;;;;23.10;68.40;;;;;;5013095;28;93281;-43
2023/07/04 01:12:43;;;;;;;;;;;23.10;68.20;;;;;;5008504;28;92727;-45
2023/07/04 01:15:09;;;;;;;;;;;23.00;68.30;;;;;;5012306;28;92323;-43
2023/07/04 01:17:35;;;;;;;;;;;23.00;68.30;;;;;;5013091;28;93136;-44
2023/07/04 01:20:02;;;;;;;;;;;23.00;68.30;;;;;;5012250;28;93906;-44
2023/07/04 01:22:53;;;;;;;;;;;23.00;68.40;;;;;;5010155;28;93621;-43
2023/07/04 01:25:37;;;;;;;;;;;23.00;68.30;;;;;;4999752;28;92151;-44
2023/07/04 01:28:04;;;;;;;;;;;23.00;68.30;;;;;;5010678;28;92507;-44
2023/07/04 01:30:32;;;;;;;;;;;23.00;68.30;;;;;;5010422;28;93157;-45
2023/07/04 01:32:59;;;;;;;;;;;22.90;68.20;;;;;;5010550;28;92199;-44
2023/07/04 01:35:26;;;;;;;;;;;22.90;68.40;;;;;;5011495;28;92824;-44
2023/07/04 01:37:51;;;;;;;;;;;22.80;68.90;;;;;;5009004;28;94545;-43
2023/07/04 01:40:17;;;;;;;;;;;22.80;68.30;;;;;;5009121;28;92236;-44
2023/07/04 01:42:43;;;;;;;;;;;22.80;68.40;;;;;;5009143;28;93136;-44
2023/07/04 01:45:09;;;;;;;;;;;22.80;68.40;;;;;;5010693;28;92483;-43
2023/07/04 01:47:35;;;;;;;;;;;22.80;68.40;;;;;;5011175;28;91483;-44
2023/07/04 01:50:02;;;;;;;;;;;22.80;68.40;;;;;;5010778;28;92979;-43
2023/07/04 01:52:28;;;;;;;;;;;22.80;68.40;;;;;;5009797;28;92119;-43
2023/07/04 01:54:54;;;;;;;;;;;22.80;68.40;;;;;;5010493;28;92994;-43
2023/07/04 01:57:19;;;;;;;;;;;22.70;68.30;;;;;;5009489;28;93003;-43
2023/07/04 01:59:45;;;;;;;;;;;22.70;68.30;;;;;;5011514;28;92335;-44
2023/07/04 02:02:11;;;;;;;;;;;22.70;68.40;;;;;;5012285;28;92316;-43
2023/07/04 02:04:36;;;;;;;;;;;22.70;68.30;;;;;;5011784;28;92756;-43
2023/07/04 02:07:02;;;;;;;;;;;22.70;68.30;;;;;;5007837;28;94202;-44
2023/07/04 02:09:27;;;;;;;;;;;22.70;68.30;;;;;;5008509;28;93239;-44
2023/07/04 02:11:53;;;;;;;;;;;22.70;68.30;;;;;;5012874;28;91587;-46
2023/07/04 02:14:18;;;;;;;;;;;22.70;68.30;;;;;;5008717;28;92072;-43
2023/07/04 02:16:44;;;;;;;;;;;22.60;68.30;;;;;;5011582;28;93231;-44
2023/07/04 02:19:10;;;;;;;;;;;22.60;68.30;;;;;;5008278;28;93170;-43
2023/07/04 02:21:35;;;;;;;;;;;22.60;68.30;;;;;;5007861;28;93362;-44
2023/07/04 02:24:01;;;;;;;;;;;22.60;68.40;;;;;;5014231;28;93470;-43
2023/07/04 02:26:27;;;;;;;;;;;22.60;68.40;;;;;;5009190;28;92558;-43
2023/07/04 02:28:52;;;;;;;;;;;22.60;68.30;;;;;;5010612;28;92640;-45
2023/07/04 02:31:18;;;;;;;;;;;22.50;68.40;;;;;;5009483;28;92085;-45
2023/07/04 02:33:43;;;;;;;;;;;22.50;68.30;;;;;;5010578;28;92836;-43
2023/07/04 02:36:11;;;;;;;;;;;22.50;68.30;;;;;;5009977;28;92646;-44
2023/07/04 02:38:40;;;;;;;;;;;22.50;68.40;;;;;;5007347;28;92175;-44
2023/07/04 02:41:06;;;;;;;;;;;22.50;68.40;;;;;;5010072;28;92407;-44
2023/07/04 02:43:31;;;;;;;;;;;22.50;68.40;;;;;;5008774;28;93937;-43
2023/07/04 02:45:57;;;;;;;;;;;22.40;68.30;;;;;;5013067;28;92135;-45
2023/07/04 02:48:24;;;;;;;;;;;22.40;68.30;;;;;;5009525;28;93191;-43
2023/07/04 02:50:49;;;;;;;;;;;22.40;68.30;;;;;;5009678;28;92118;-45
2023/07/04 02:53:20;;;;;;;;;;;22.50;68.30;;;;;;5009629;28;92630;-43
2023/07/04 02:55:46;;;;;;;;;;;22.40;68.20;;;;;;5009369;28;94716;-44
2023/07/04 02:58:11;;;;;;;;;;;22.40;68.20;;;;;;5009869;28;92010;-45
2023/07/04 03:00:37;;;;;;;;;;;22.40;68.20;;;;;;5009898;28;92541;-47
2023/07/04 03:03:02;;;;;;;;;;;22.40;68.30;;;;;;5008224;28;95925;-45
2023/07/04 03:05:28;;;;;;;;;;;22.40;68.30;;;;;;5008808;28;92220;-44
2023/07/04 03:07:53;;;;;;;;;;;22.40;68.20;;;;;;5009379;28;93432;-43
2023/07/04 03:10:19;;;;;;;;;;;22.30;68.20;;;;;;5010740;28;92210;-45
2023/07/04 03:12:44;;;;;;;;;;;22.30;68.20;;;;;;5008485;28;92408;-44
2023/07/04 03:15:10;;;;;;;;;;;22.30;68.20;;;;;;5010525;28;93314;-44
2023/07/04 03:17:36;;;;;;;;;;;22.30;68.80;;;;;;5008022;28;92162;-48
2023/07/04 03:20:06;;;;;;;;;;;22.30;68.30;;;;;;5011315;28;92434;-44
2023/07/04 03:22:31;;;;;;;;;;;22.30;68.20;;;;;;5006947;28;93079;-44
2023/07/04 03:24:57;;;;;;;;;;;22.30;68.10;;;;;;5008075;28;92027;-47
2023/07/04 03:27:22;;;;;;;;;;;22.30;68.20;;;;;;5014217;28;93101;-44
2023/07/04 03:29:48;;;;;;;;;;;22.30;68.10;;;;;;4985964;28;92260;-45
2023/07/04 03:32:13;;;;;;;;;;;22.30;68.10;;;;;;5010328;28;92928;-46
2023/07/04 03:34:39;;;;;;;;;;;22.20;68.10;;;;;;5005811;28;96599;-45
2023/07/04 03:37:04;;;;;;;;;;;22.20;68.20;;;;;;5007105;28;92240;-44
2023/07/04 03:39:30;;;;;;;;;;;22.20;68.20;;;;;;5010111;28;92710;-45
2023/07/04 03:41:55;;;;;;;;;;;22.20;68.20;;;;;;5006230;28;93024;-46
2023/07/04 03:44:21;;;;;;;;;;;22.20;68.20;;;;;;5008355;28;92026;-47
2023/07/04 03:46:46;;;;;;;;;;;22.20;68.20;;;;;;5007263;28;92442;-47
2023/07/04 03:49:12;;;;;;;;;;;22.10;68.10;;;;;;5010714;28;92492;-47
2023/07/04 03:51:37;;;;;;;;;;;22.10;68.20;;;;;;5007678;28;93013;-48
2023/07/04 03:54:03;;;;;;;;;;;22.10;68.20;;;;;;5004519;28;92943;-45
2023/07/04 03:56:28;;;;;;;;;;;22.20;68.20;;;;;;5006248;28;93090;-49
2023/07/04 03:58:54;;;;;;;;;;;22.10;68.20;;;;;;5008090;28;93361;-51
2023/07/04 04:01:19;;;;;;;;;;;22.10;68.10;;;;;;5005775;28;93874;-45
2023/07/04 04:03:45;;;;;;;;;;;22.10;68.10;;;;;;5008575;28;92289;-51
2023/07/04 04:06:10;;;;;;;;;;;22.10;68.20;;;;;;5006132;28;93326;-49
2023/07/04 04:08:36;;;;;;;;;;;22.10;68.80;;;;;;5004051;28;93906;-48
2023/07/04 04:11:02;;;;;;;;;;;22.10;68.20;;;;;;5012242;28;92168;-47
2023/07/04 04:13:28;;;;;;;;;;;22.10;68.10;;;;;;5005519;28;92577;-48
2023/07/04 04:15:53;;;;;;;;;;;22.00;68.10;;;;;;5001075;28;92206;-51
2023/07/04 04:18:19;;;;;;;;;;;22.10;68.20;;;;;;5008521;28;94003;-43
2023/07/04 04:20:45;;;;;;;;;;;22.00;68.10;;;;;;5002122;28;97116;-43
2023/07/04 04:23:10;;;;;;;;;;;22.00;68.10;;;;;;5007241;28;92270;-43
2023/07/04 04:25:38;;;;;;;;;;;22.00;68.20;;;;;;5008366;28;92492;-44
2023/07/04 04:28:09;;;;;;;;;;;22.00;68.10;;;;;;5004933;28;94556;-43
2023/07/04 04:30:35;;;;;;;;;;;22.00;68.00;;;;;;5008703;28;92460;-44
2023/07/04 04:33:02;;;;;;;;;;;22.00;68.20;;;;;;5008064;28;92620;-43
2023/07/04 04:35:28;;;;;;;;;;;22.00;68.20;;;;;;5008591;28;92255;-43
2023/07/04 04:37:54;;;;;;;;;;;22.00;68.10;;;;;;5006650;28;92314;-44
2023/07/04 04:40:19;;;;;;;;;;;22.00;68.10;;;;;;4947651;28;1621013;-43
2023/07/04 04:42:45;;;;;;;;;;;21.90;68.20;;;;;;5009407;28;92131;-45
2023/07/04 04:45:12;;;;;;;;;;;21.90;68.10;;;;;;5006811;28;93005;-43
2023/07/04 04:47:38;;;;;;;;;;;21.90;68.10;;;;;;5008466;28;93279;-45
2023/07/04 04:50:05;;;;;;;;;;;21.90;68.20;;;;;;5007086;28;92127;-44
2023/07/04 04:52:31;;;;;;;;;;;21.90;68.20;;;;;;5007340;28;92518;-44
2023/07/04 04:54:56;;;;;;;;;;;21.90;68.10;;;;;;5011070;28;93397;-45
2023/07/04 04:57:23;;;;;;;;;;;21.90;68.10;;;;;;5007731;28;92347;-44
2023/07/04 04:59:49;;;;;;;;;;;21.90;68.10;;;;;;5007577;28;94577;-44
2023/07/04 05:02:15;;;;;;;;;;;22.00;68.20;;;;;;5008229;28;91505;-45
2023/07/04 05:04:41;;;;;;;;;;;21.90;68.10;;;;;;5007843;28;92043;-46
2023/07/04 05:07:07;;;;;;;;;;;22.00;68.10;;;;;;5007000;28;93072;-43
2023/07/04 05:09:32;;;;;;;;;;;21.90;68.20;;;;;;5005186;28;93134;-45
2023/07/04 05:11:59;;;;;;;;;;;22.00;68.20;;;;;;5007405;28;93328;-44
2023/07/04 05:14:24;;;;;;;;;;;21.90;68.10;;;;;;5008231;28;93295;-44
2023/07/04 05:16:49;;;;;;;;;;;21.90;68.20;;;;;;5010023;28;92107;-43
2023/07/04 05:19:15;;;;;;;;;;;21.90;68.20;;;;;;5008618;28;93296;-43
2023/07/04 05:21:41;;;;;;;;;;;22.00;68.30;;;;;;5006499;28;92021;-43
2023/07/04 05:24:06;;;;;;;;;;;22.00;68.20;;;;;;5005184;28;93627;-44
2023/07/04 05:26:32;;;;;;;;;;;22.00;68.20;;;;;;5009592;28;92587;-44
2023/07/04 05:29:03;;;;;;;;;;;22.00;68.20;;;;;;5004136;28;92206;-43
2023/07/04 05:31:29;;;;;;;;;;;22.00;68.30;;;;;;5005230;28;92467;-43
2023/07/04 05:33:55;;;;;;;;;;;21.90;68.20;;;;;;5011178;28;95199;-43
2023/07/04 05:36:26;;;;;;;;;;;22.00;68.40;;;;;;5012622;28;91988;-45
2023/07/04 05:38:52;;;;;;;;;;;22.00;68.40;;;;;;5010871;28;94698;-44
2023/07/04 05:41:19;;;;;;;;;;;22.00;68.40;;;;;;5008904;28;92195;-43
2023/07/04 05:43:44;;;;;;;;;;;22.00;68.40;;;;;;5012361;28;92423;-43
2023/07/04 05:46:11;;;;;;;;;;;22.00;68.40;;;;;;5008918;28;92895;-44
2023/07/04 05:48:37;;;;;;;;;;;22.00;69.00;;;;;;5012587;28;93289;-45
2023/07/04 05:51:04;;;;;;;;;;;22.00;68.40;;;;;;5009057;28;93793;-44
2023/07/04 05:53:31;;;;;;;;;;;22.00;68.40;;;;;;5007222;28;93048;-44
2023/07/04 05:56:09;;;;;;;;;;;22.00;68.70;;;;;;5012319;28;92109;-43
2023/07/04 05:58:38;;;;;;;;;;;22.00;68.40;;;;;;5011987;28;93191;-44
2023/07/04 06:01:08;;;;;;;;;;;22.00;68.50;;;;;;5010500;28;92157;-43
2023/07/04 06:03:34;;;;;;;;;;;22.00;68.60;;;;;;5010929;28;92480;-43
2023/07/04 06:06:00;;;;;;;;;;;22.00;68.60;;;;;;5009984;28;93292;-43
2023/07/04 06:08:25;;;;;;;;;;;22.00;68.60;;;;;;5009869;28;92162;-43
2023/07/04 06:11:17;;;;;;;;;;;22.00;68.60;;;;;;5010786;28;92421;-45
2023/07/04 06:13:42;;;;;;;;;;;22.00;68.60;;;;;;5006075;28;93248;-46
2023/07/04 06:16:08;;;;;;;;;;;22.00;68.60;;;;;;5012151;28;92593;-44
2023/07/04 06:18:34;;;;;;;;;;;22.00;68.70;;;;;;5009346;28;92140;-44
2023/07/04 06:21:09;;;;;;;;;;;22.00;68.90;;;;;;5013169;28;93043;-43
2023/07/04 06:23:35;;;;;;;;;;;22.00;68.90;;;;;;5008703;28;93138;-43
2023/07/04 06:26:00;;;;;;;;;;;22.00;68.80;;;;;;5010328;28;93341;-43
2023/07/04 06:28:26;;;;;;;;;;;22.00;69.40;;;;;;5009353;28;92594;-43
2023/07/04 06:30:51;;;;;;;;;;;22.00;68.80;;;;;;5011005;28;92611;-43
2023/07/04 06:33:17;;;;;;;;;;;22.00;68.80;;;;;;5008786;28;93174;-44
2023/07/04 06:35:42;;;;;;;;;;;22.00;69.00;;;;;;5011513;28;92000;-45
2023/07/04 06:38:08;;;;;;;;;;;22.00;68.90;;;;;;5008614;28;92579;-43
2023/07/04 06:40:34;;;;;;;;;;;22.00;68.90;;;;;;5008044;28;92337;-44
2023/07/04 06:43:00;;;;;;;;;;;22.00;69.00;;;;;;5013954;28;92215;-43
2023/07/04 06:45:25;;;;;;;;;;;22.00;69.00;;;;;;4986279;28;94714;-44
2023/07/04 06:47:51;;;;;;;;;;;22.00;69.00;;;;;;5007068;28;93236;-44
2023/07/04 06:50:16;;;;;;;;;;;22.00;69.10;;;;;;5011112;28;94655;-43
2023/07/04 06:52:42;;;;;;;;;;;22.00;69.10;;;;;;5007988;28;92698;-43
2023/07/04 06:55:08;;;;;;;;;;;22.00;69.00;;;;;;5010154;28;92443;-43
2023/07/04 06:57:33;;;;;;;;;;;22.00;69.10;;;;;;5008694;28;94150;-44
2023/07/04 06:59:58;;;;;;;;;;;22.00;69.10;;;;;;5009899;28;93102;-43
2023/07/04 07:02:25;;;;;;;;;;;22.00;69.10;;;;;;5009006;28;92164;-43
2023/07/04 07:04:51;;;;;;;;;;;22.00;69.10;;;;;;5013092;28;94041;-44
2023/07/04 07:07:16;;;;;;;;;;;22.00;69.10;;;;;;5009502;28;92170;-43
2023/07/04 07:09:42;;;;;;;;;;;22.10;69.20;;;;;;5006979;28;93425;-47
2023/07/04 07:12:08;;;;;;;;;;;22.00;69.20;;;;;;5008267;28;94024;-43
2023/07/04 07:14:34;;;;;;;;;;;22.00;69.20;;;;;;5009867;28;92141;-43
2023/07/04 07:17:00;;;;;;;;;;;22.00;69.20;;;;;;5009188;28;92885;-43
2023/07/04 07:19:26;;;;;;;;;;;22.00;69.20;;;;;;5009517;28;93146;-43
2023/07/04 07:21:51;;;;;;;;;;;22.00;69.20;;;;;;5008254;28;92183;-44
2023/07/04 07:24:17;;;;;;;;;;;22.00;69.20;;;;;;5008984;28;92596;-44
2023/07/04 07:26:42;;;;;;;;;;;22.00;69.30;;;;;;5010663;28;92988;-43
2023/07/04 07:29:08;;;;;;;;;;;22.00;69.90;;;;;;5008049;28;93957;-43
2023/07/04 07:31:34;;;;;;;;;;;22.00;69.30;;;;;;5010273;28;94237;-42
2023/07/04 07:34:00;;;;;;;;;;;22.10;69.30;;;;;;5007639;28;92052;-45
2023/07/04 07:36:33;;;;;;;;;;;22.10;69.90;;;;;;5010587;28;93061;-43
2023/07/04 07:38:59;;;;;;;;;;;22.10;69.30;;;;;;5002697;28;94341;-43
2023/07/04 07:41:26;;;;;;;;;;;22.10;69.40;;;;;;5007195;28;92562;-44
2023/07/04 07:43:52;;;;;;;;;;;22.10;69.30;;;;;;5010335;28;92549;-43
2023/07/04 07:46:18;;;;;;;;;;;22.10;69.40;;;;;;5010259;28;93065;-43
2023/07/04 07:48:44;;;;;;;;;;;22.10;69.40;;;;;;5010627;28;92510;-44
2023/07/04 07:51:11;;;;;;;;;;;22.10;69.40;;;;;;5006352;28;94534;-47
2023/07/04 07:53:38;;;;;;;;;;;22.10;69.90;;;;;;5010723;28;91468;-43
2023/07/04 07:56:04;;;;;;;;;;;22.10;69.70;;;;;;5006319;28;92080;-46
2023/07/04 07:58:31;;;;;;;;;;;22.10;70.00;;;;;;5010028;28;95270;-44
2023/07/04 08:00:57;;;;;;;;;;;22.10;69.70;;;;;;5006306;28;93327;-43
2023/07/04 08:03:22;;;;;;;;;;;22.10;69.60;;;;;;5010812;28;93397;-44
2023/07/04 08:05:48;;;;;;;;;;;22.10;69.60;;;;;;5006478;28;92987;-44
2023/07/04 08:08:13;;;;;;;;;;;22.20;69.40;;;;;;5013678;28;92288;-47
2023/07/04 08:10:40;;;;;;;;;;;22.10;69.20;;;;;;5007331;28;93159;-45
2023/07/04 08:13:06;;;;;;;;;;;22.10;69.60;;;;;;5007481;28;92247;-47
2023/07/04 08:15:31;;;;;;;;;;;22.20;69.60;;;;;;5009672;28;93889;-43
2023/07/04 08:18:02;;;;;;;;;;;22.10;69.20;;;;;;5007628;28;92375;-46
2023/07/04 08:20:27;;;;;;;;;;;22.20;69.50;;;;;;5009711;28;92058;-48
2023/07/04 08:22:53;;;;;;;;;;;22.20;69.60;;;;;;5007436;28;92425;-43
2023/07/04 08:25:18;;;;;;;;;;;22.20;69.60;;;;;;5005884;28;94327;-45
2023/07/04 08:27:44;;;;;;;;;;;22.20;69.80;;;;;;5009344;28;92061;-48
2023/07/04 08:30:10;;;;;;;;;;;22.20;69.50;;;;;;5010492;28;92561;-46
2023/07/04 08:32:35;;;;;;;;;;;22.20;69.50;;;;;;5008509;28;92160;-47
2023/07/04 08:35:00;;;;;;;;;;;22.20;69.40;;;;;;5008409;28;92387;-45
2023/07/04 08:37:26;;;;;;;;;;;22.30;69.60;;;;;;5007896;28;93085;-46
2023/07/04 08:39:52;;;;;;;;;;;22.20;69.30;;;;;;5005861;28;92169;-50
2023/07/04 08:42:18;;;;;;;;;;;22.20;69.40;;;;;;5009288;28;92492;-47
2023/07/04 08:44:44;;;;;;;;;;;22.30;69.40;;;;;;5007199;28;93138;-48
2023/07/04 08:47:11;;;;;;;;;;;22.30;69.50;;;;;;5008096;28;92171;-43
2023/07/04 08:49:41;;;;;;;;;;;22.30;69.50;;;;;;5006535;28;92992;-45
2023/07/04 08:52:21;;;;;;;;;;;22.30;69.40;;;;;;5010548;28;93065;-44
2023/07/04 08:54:47;;;;;;;;;;;22.30;69.40;;;;;;5004592;28;92339;-43
2023/07/04 08:57:31;;;;;;;;;;;22.30;69.50;;;;;;5008029;28;93187;-44
2023/07/04 09:00:00;;;;;;;;;;;22.40;69.50;;;;;;5005256;28;92288;-44
2023/07/04 09:02:28;;;;;;;;;;;22.40;69.50;;;;;;5007902;28;94226;-43
2023/07/04 09:05:12;;;;;;;;;;;22.40;69.50;;;;;;5007222;28;93358;-43
2023/07/04 09:07:37;;;;;;;;;;;22.40;69.90;;;;;;5006224;28;91347;-45
2023/07/04 09:10:12;;;;;;;;;;;22.40;69.80;;;;;;5008961;28;92148;-43
2023/07/04 09:12:39;;;;;;;;;;;22.40;69.80;;;;;;5006256;28;93097;-42
2023/07/04 09:15:18;;;;;;;;;;;22.40;70.00;;;;;;5013782;28;93155;-45
2023/07/04 09:17:48;;;;;;;;;;;22.40;69.80;;;;;;5010382;28;94386;-43
2023/07/04 09:20:13;;;;;;;;;;;22.40;69.90;;;;;;5007644;28;92205;-43
2023/07/04 09:22:39;;;;;;;;;;;22.40;69.80;;;;;;5011750;28;92571;-43
2023/07/04 09:25:05;;;;;;;;;;;22.40;69.80;;;;;;5005950;28;94116;-43
2023/07/04 09:27:31;;;;;;;;;;;22.50;69.80;;;;;;5010329;28;92169;-44
2023/07/04 09:29:57;;;;;;;;;;;22.50;69.70;;;;;;5010936;28;92417;-43
2023/07/04 09:32:23;;;;;;;;;;;22.50;69.70;;;;;;5011330;28;92295;-43
2023/07/04 09:34:50;;;;;;;;;;;22.50;69.60;;;;;;5014356;28;92167;-44
2023/07/04 09:37:17;;;;;;;;;;;22.50;69.70;;;;;;5010100;28;93076;-44
2023/07/04 09:39:56;;;;;;;;;;;22.60;69.70;;;;;;5010448;28;93078;-44
2023/07/04 09:42:30;;;;;;;;;;;22.60;69.60;;;;;;5011892;28;93373;-45
2023/07/04 09:44:56;;;;;;;;;;;22.60;69.70;;;;;;5005558;28;92347;-44
2023/07/04 09:47:24;;;;;;;;;;;22.60;69.70;;;;;;5012840;28;93362;-43
2023/07/04 09:50:07;;;;;;;;;;;22.60;69.70;;;;;;5009363;28;92669;-44
2023/07/04 09:52:32;;;;;;;;;;;22.70;69.80;;;;;;5009421;28;93222;-45
2023/07/04 09:55:09;;;;;;;;;;;22.70;69.70;;;;;;5009764;28;92684;-42
2023/07/04 09:57:35;;;;;;;;;;;22.70;69.80;;;;;;5013861;28;94129;-44
2023/07/04 10:00:17;;;;;;;;;;;22.70;69.80;;;;;;5008047;28;92232;-45
2023/07/04 10:02:43;;;;;;;;;;;22.70;69.90;;;;;;5006612;28;93736;-43
2023/07/04 10:05:10;;;;;;;;;;;22.70;69.90;;;;;;5009667;28;95524;-44
2023/07/04 10:07:36;;;;;;;;;;;22.70;69.80;;;;;;5010136;28;92217;-43
2023/07/04 10:10:04;;;;;;;;;;;22.70;69.80;;;;;;5011282;28;92347;-43
2023/07/04 10:12:31;;;;;;;;;;;22.80;69.70;;;;;;5008142;28;94979;-43
2023/07/04 10:14:58;;;;;;;;;;;22.80;69.60;;;;;;5010170;28;92663;-43
2023/07/04 10:17:27;;;;;;;;;;;22.70;70.30;;;;;;5007781;28;94030;-43
2023/07/04 10:20:02;;;;;;;;;;;22.70;69.80;;;;;;5011771;28;93191;-42
2023/07/04 10:22:32;;;;;;;;;;;22.80;69.80;;;;;;5011158;28;93651;-42
2023/07/04 10:24:58;;;;;;;;;;;22.80;70.30;;;;;;5007761;28;94301;-42
2023/07/04 10:27:44;;;;;;;;;;;22.80;69.60;;;;;;5006830;28;92683;-43
2023/07/04 10:30:11;;;;;;;;;;;22.90;69.80;;;;;;5005792;28;93104;-43
2023/07/04 10:32:40;;;;;;;;;;;22.80;69.70;;;;;;5010103;28;93105;-43
2023/07/04 10:35:08;;;;;;;;;;;22.90;69.60;;;;;;5010041;28;92170;-43
2023/07/04 10:37:36;;;;;;;;;;;23.00;69.70;;;;;;5010202;28;92486;-43
2023/07/04 10:40:03;;;;;;;;;;;23.00;69.60;;;;;;5009254;28;93090;-43
2023/07/04 10:42:42;;;;;;;;;;;23.00;69.50;;;;;;5012742;28;92969;-43
2023/07/04 10:45:09;;;;;;;;;;;23.00;69.50;;;;;;5011039;28;94039;-43
2023/07/04 10:47:37;;;;;;;;;;;23.10;69.50;;;;;;5008839;28;91603;-43
2023/07/04 10:50:05;;;;;;;;;;;23.10;69.50;;;;;;5011815;28;92022;-43
2023/07/04 10:52:32;;;;;;;;;;;23.10;69.50;;;;;;5003307;28;94852;-43
2023/07/04 10:54:59;;;;;;;;;;;23.10;69.50;;;;;;5003568;28;93245;-44
2023/07/04 10:57:47;;;;;;;;;;;23.10;69.40;;;;;;5003711;28;93374;-43
2023/07/04 11:00:19;;;;;;;;;;;23.20;68.90;;;;;;5006595;28;93092;-43
2023/07/04 11:02:46;;;;;;;;;;;23.10;69.40;;;;;;5008494;28;92150;-43
2023/07/04 11:05:15;;;;;;;;;;;23.20;69.40;;;;;;5012046;28;92527;-43
2023/07/04 11:07:42;;;;;;;;;;;23.20;69.50;;;;;;5005828;28;92259;-45
2023/07/04 11:10:10;;;;;;;;;;;23.20;69.50;;;;;;5009764;28;92925;-44
2023/07/04 11:12:37;;;;;;;;;;;23.20;69.50;;;;;;5005200;28;93782;-43
2023/07/04 11:15:08;;;;;;;;;;;23.20;69.50;;;;;;5005703;28;92757;-42
2023/07/04 11:17:35;;;;;;;;;;;23.30;69.40;;;;;;5002845;28;94329;-45
2023/07/04 11:20:12;;;;;;;;;;;23.30;69.40;;;;;;5008643;28;94106;-43
2023/07/04 11:22:46;;;;;;;;;;;23.30;69.40;;;;;;5007921;28;92378;-44
2023/07/04 11:25:31;;;;;;;;;;;23.30;69.40;;;;;;5007494;28;93705;-44
2023/07/04 11:28:15;;;;;;;;;;;23.30;69.50;;;;;;5007321;28;93041;-43
2023/07/04 11:30:41;;;;;;;;;;;23.30;69.50;;;;;;5006379;28;92435;-44
2023/07/04 11:33:07;;;;;;;;;;;23.30;70.10;;;;;;5008522;28;93006;-44
2023/07/04 11:35:33;;;;;;;;;;;23.30;69.50;;;;;;5006645;28;92234;-43
2023/07/04 11:38:10;;;;;;;;;;;23.30;69.40;;;;;;5008795;28;92377;-44
2023/07/04 11:40:47;;;;;;;;;;;23.30;69.40;;;;;;5001302;28;92253;-43
2023/07/04 11:43:24;;;;;;;;;;;23.40;69.40;;;;;;5005716;28;92150;-43
2023/07/04 11:45:51;;;;;;;;;;;23.40;69.40;;;;;;5006273;28;93023;-43
2023/07/04 11:48:17;;;;;;;;;;;23.40;69.20;;;;;;5010937;28;93589;-45
2023/07/04 11:50:44;;;;;;;;;;;23.50;69.20;;;;;;5006956;28;92469;-43
2023/07/04 11:53:22;;;;;;;;;;;23.50;69.10;;;;;;5008316;28;93270;-46
2023/07/04 11:56:06;;;;;;;;;;;23.50;69.10;;;;;;5002744;28;92014;-43
2023/07/04 11:58:31;;;;;;;;;;;23.60;69.10;;;;;;5007037;28;93526;-45
2023/07/04 12:00:58;;;;;;;;;;;23.60;69.10;;;;;;5007221;28;92258;-43
2023/07/04 12:03:29;;;;;;;;;;;23.60;69.10;;;;;;5008538;28;91395;-45
2023/07/04 12:05:59;;;;;;;;;;;23.60;69.00;;;;;;5006859;28;93174;-45
2023/07/04 12:08:45;;;;;;;;;;;23.60;69.00;;;;;;5004303;28;92391;-45
2023/07/04 12:11:33;;;;;;;;;;;23.70;69.10;;;;;;5007271;28;93645;-45
2023/07/04 12:13:59;;;;;;;;;;;23.70;69.10;;;;;;5005343;28;93234;-44
2023/07/04 12:16:25;;;;;;;;;;;23.70;69.00;;;;;;5010248;28;92094;-44
2023/07/04 12:18:51;;;;;;;;;;;23.70;69.00;;;;;;5006970;28;92426;-44
2023/07/04 12:21:18;;;;;;;;;;;23.70;69.00;;;;;;5010084;28;93108;-43
2023/07/04 12:23:45;;;;;;;;;;;23.80;69.00;;;;;;5003164;28;92089;-43
2023/07/04 12:26:17;;;;;;;;;;;23.80;69.00;;;;;;5010342;28;92567;-46
2023/07/04 12:28:45;;;;;;;;;;;23.80;68.90;;;;;;5004101;28;92477;-45
2023/07/04 12:31:10;;;;;;;;;;;23.80;68.90;;;;;;5009558;28;92230;-43
2023/07/04 12:33:45;;;;;;;;;;;23.90;69.00;;;;;;5009443;28;92129;-44
2023/07/04 12:36:13;;;;;;;;;;;23.90;68.90;;;;;;5008363;28;93034;-46
2023/07/04 12:38:49;;;;;;;;;;;23.90;68.80;;;;;;5007909;28;94948;-46
2023/07/04 12:41:19;;;;;;;;;;;23.90;68.80;;;;;;5007870;28;93171;-44
2023/07/04 12:43:50;;;;;;;;;;;24.00;68.80;;;;;;5008583;28;92257;-43
2023/07/04 12:46:18;;;;;;;;;;;24.00;68.80;;;;;;5003241;28;92481;-47
2023/07/04 12:48:44;;;;;;;;;;;24.00;68.80;;;;;;5005590;28;95754;-46
2023/07/04 12:51:13;;;;;;;;;;;24.00;68.90;;;;;;5013934;28;92122;-47
2023/07/04 12:53:39;;;;;;;;;;;24.00;68.90;;;;;;5006754;28;92442;-45
2023/07/04 12:56:07;;;;;;;;;;;24.00;69.00;;;;;;5016222;28;93174;-50
2023/07/04 12:58:33;;;;;;;;;;;24.00;69.00;;;;;;5006881;28;93671;-49
2023/07/04 13:01:04;;;;;;;;;;;24.00;69.10;;;;;;5008876;28;93280;-47
2023/07/04 13:03:30;;;;;;;;;;;24.00;68.90;;;;;;5006972;28;92524;-48
2023/07/04 13:05:55;;;;;;;;;;;24.00;68.90;;;;;;5013062;28;92374;-45
2023/07/04 13:08:23;;;;;;;;;;;24.00;68.90;;;;;;5009156;28;94524;-47
2023/07/04 13:10:51;;;;;;;;;;;24.10;68.90;;;;;;5013250;28;92143;-48
2023/07/04 13:13:35;;;;;;;;;;;24.10;68.80;;;;;;5010567;28;93927;-47
2023/07/04 13:16:19;;;;;;;;;;;24.20;68.80;;;;;;5012030;28;93033;-49
2023/07/04 13:18:47;;;;;;;;;;;24.20;68.80;;;;;;5011394;28;91529;-43
2023/07/04 13:21:27;;;;;;;;;;;24.30;68.70;;;;;;5011771;28;93097;-44
2023/07/04 13:23:53;;;;;;;;;;;24.30;68.60;;;;;;5012215;28;92164;-47
2023/07/04 13:26:20;;;;;;;;;;;24.40;68.60;;;;;;5010067;28;93136;-42
2023/07/04 13:28:48;;;;;;;;;;;24.40;68.50;;;;;;5009569;28;93078;-43
2023/07/04 13:31:26;;;;;;;;;;;24.40;68.50;;;;;;5012046;28;92192;-43
2023/07/04 13:33:55;;;;;;;;;;;24.50;68.60;;;;;;5005789;28;92922;-44
2023/07/04 13:36:34;;;;;;;;;;;24.50;68.40;;;;;;5012031;28;93293;-43
2023/07/04 13:39:00;;;;;;;;;;;24.50;68.50;;;;;;5010383;28;92058;-44
2023/07/04 13:41:26;;;;;;;;;;;24.50;68.40;;;;;;5010946;28;92700;-43
2023/07/04 13:43:51;;;;;;;;;;;24.50;68.30;;;;;;5008223;28;91550;-43
2023/07/04 13:46:18;;;;;;;;;;;24.50;68.40;;;;;;5009754;28;92381;-46
2023/07/04 13:48:46;;;;;;;;;;;24.60;68.30;;;;;;5010222;28;94895;-43
2023/07/04 13:51:12;;;;;;;;;;;24.60;68.30;;;;;;5009473;28;93087;-44
2023/07/04 13:53:38;;;;;;;;;;;24.60;68.10;;;;;;5011207;28;93487;-43
2023/07/04 13:56:03;;;;;;;;;;;24.60;68.10;;;;;;5009296;28;93214;-42
2023/07/04 13:58:29;;;;;;;;;;;24.70;68.10;;;;;;5007306;28;92190;-43
2023/07/04 14:00:54;;;;;;;;;;;24.70;67.90;;;;;;5012938;28;92686;-43
2023/07/04 14:03:20;;;;;;;;;;;24.70;68.10;;;;;;5007830;28;92138;-44
2023/07/04 14:05:46;;;;;;;;;;;24.70;68.10;;;;;;5010833;28;92729;-43
2023/07/04 14:08:11;;;;;;;;;;;24.70;68.20;;;;;;5008580;28;92518;-44
2023/07/04 14:10:38;;;;;;;;;;;24.70;68.20;;;;;;5010827;28;92624;-45
2023/07/04 14:13:04;;;;;;;;;;;24.70;68.20;;;;;;5006302;28;94113;-43
2023/07/04 14:15:30;;;;;;;;;;;24.70;68.10;;;;;;5006215;28;93919;-43
2023/07/04 14:17:56;;;;;;;;;;;24.70;68.10;;;;;;5003603;28;92168;-42
2023/07/04 14:20:22;;;;;;;;;;;24.70;68.20;;;;;;5010912;28;92523;-45